Time;durP1;ratioP1;P1;durP2;ratioP2;P2;SDS_P1;SDS_P2;PMS_P1;PMS_P2;Temp;Humidity;BMP_temperature;BMP_pressure;BME280_temperature;BME280_humidity;BME280_pressure;Samples;Min_cycle;Max_cycle;Signal;HPM_P1;HPM_P2
2021/09/28 00:01:03;;;;;;;10.97;6.50;;;;;;;15.11;100.00;100635.45;1769816;80;21588;-68
2021/09/28 00:03:30;;;;;;;11.23;6.00;;;;;;;15.31;100.00;100637.57;1765423;80;21524;-68
2021/09/28 00:05:57;;;;;;;9.97;6.53;;;;;;;15.62;100.00;100636.08;1769460;80;21906;-72
2021/09/28 00:08:24;;;;;;;9.23;6.73;;;;;;;15.53;100.00;100635.99;1768748;80;21339;-70
2021/09/28 00:10:50;;;;;;;12.63;7.27;;;;;;;15.02;100.00;100640.11;1768989;80;21262;-69
2021/09/28 00:13:17;;;;;;;10.03;6.33;;;;;;;15.02;100.00;100640.11;1768890;80;22733;-68
2021/09/28 00:15:44;;;;;;;9.53;6.43;;;;;;;15.20;100.00;100637.39;1769320;80;21269;-69
2021/09/28 00:18:12;;;;;;;10.33;7.63;;;;;;;15.04;100.00;100647.81;1768449;80;21442;-68
2021/09/28 00:20:39;;;;;;;10.77;6.73;;;;;;;15.04;100.00;100647.81;1767249;80;21541;-70
2021/09/28 00:23:07;;;;;;;10.40;6.57;;;;;;;15.15;100.00;100641.11;1769262;80;21425;-69
2021/09/28 00:25:34;;;;;;;9.77;6.10;;;;;;;14.96;100.00;100642.22;1769151;80;21405;-68
2021/09/28 00:28:01;;;;;;;12.03;6.43;;;;;;;14.83;100.00;100645.66;1768583;80;21427;-68
2021/09/28 00:30:27;;;;;;;10.23;7.33;;;;;;;14.83;100.00;100645.66;1768892;80;22028;-69
2021/09/28 00:32:54;;;;;;;11.33;6.00;;;;;;;14.96;100.00;100647.47;1768679;80;21395;-69
2021/09/28 00:35:21;;;;;;;11.60;6.17;;;;;;;14.84;100.00;100654.34;1769334;80;21474;-68
2021/09/28 00:37:48;;;;;;;11.10;7.13;;;;;;;14.68;100.00;100655.55;1768969;80;21461;-70
2021/09/28 00:40:14;;;;;;;11.50;7.10;;;;;;;14.68;100.00;100655.55;1769118;80;21514;-69
2021/09/28 00:42:41;;;;;;;12.40;7.47;;;;;;;14.74;100.00;100652.12;1768305;80;21359;-68
2021/09/28 00:45:09;;;;;;;11.60;6.47;;;;;;;14.74;100.00;100652.12;1769301;80;21920;-73
2021/09/28 00:47:36;;;;;;;13.87;6.00;;;;;;;15.00;100.00;100658.38;1750232;80;21478;-68
2021/09/28 00:50:03;;;;;;;9.63;6.73;;;;;;;14.95;100.00;100655.56;1751723;80;21519;-68
2021/09/28 00:52:31;;;;;;;11.07;7.20;;;;;;;14.95;100.00;100655.56;1750353;80;21608;-68
2021/09/28 00:54:59;;;;;;;11.30;6.43;;;;;;;14.99;100.00;100654.15;1724883;81;21389;-70
2021/09/28 00:57:26;;;;;;;10.23;6.13;;;;;;;14.93;100.00;100649.22;1751751;80;21424;-68
2021/09/28 00:59:52;;;;;;;16.10;6.97;;;;;;;15.07;100.00;100652.12;1752819;80;21457;-67
2021/09/28 01:02:20;;;;;;;10.27;6.93;;;;;;;15.42;100.00;100657.64;1746170;80;21354;-67
2021/09/28 01:04:47;;;;;;;14.53;6.73;;;;;;;15.42;100.00;100657.64;1752901;80;21880;-67
2021/09/28 01:07:15;;;;;;;10.43;6.30;;;;;;;15.17;100.00;100658.28;1755243;80;21378;-71
2021/09/28 01:09:42;;;;;;;13.23;6.00;;;;;;;15.10;100.00;100657.48;1750613;81;21275;-67
2021/09/28 01:12:09;;;;;;;16.37;6.87;;;;;;;15.28;100.00;100660.81;1750902;80;21825;-66
2021/09/28 01:14:37;;;;;;;11.70;6.50;;;;;;;15.08;100.00;100659.52;1777150;80;21391;-67
2021/09/28 01:17:14;;;;;;;14.87;6.57;;;;;;;15.31;100.00;100659.90;1744726;80;21188;-66
2021/09/28 01:19:41;;;;;;;17.87;6.87;;;;;;;15.41;100.00;100665.22;1772220;79;21225;-71
2021/09/28 01:22:07;;;;;;;12.53;5.13;;;;;;;15.19;100.00;100668.09;1775847;79;21261;-67
2021/09/28 01:24:36;;;;;;;14.50;5.03;;;;;;;15.11;100.00;100666.96;1777183;80;21276;-69
2021/09/28 01:27:04;;;;;;;11.97;5.57;;;;;;;14.96;100.00;100667.67;1745997;80;21272;-67
2021/09/28 01:29:31;;;;;;;16.23;6.67;;;;;;;14.48;100.00;100672.53;1745048;80;21271;-67
2021/09/28 01:31:57;;;;;;;15.70;5.47;;;;;;;14.62;100.00;100677.83;1745498;80;21242;-71
2021/09/28 01:34:24;;;;;;;11.43;5.27;;;;;;;14.52;100.00;100679.54;1745463;80;21193;-67
2021/09/28 01:36:51;;;;;;;14.53;6.33;;;;;;;14.26;100.00;100673.17;1744827;80;21661;-67
2021/09/28 01:39:19;;;;;;;16.80;7.17;;;;;;;14.06;100.00;100680.17;1744943;80;21298;-71
2021/09/28 01:41:47;;;;;;;11.40;5.97;;;;;;;13.98;100.00;100688.17;1746053;80;21144;-66
2021/09/28 01:44:17;;;;;;;10.67;4.90;;;;;;;14.12;100.00;100685.92;1744955;80;21176;-68
2021/09/28 01:46:47;;;;;;;14.68;5.47;;;;;;;14.01;100.00;100680.73;1744918;80;21104;-68
2021/09/28 01:49:16;;;;;;;12.40;5.27;;;;;;;14.12;100.00;100680.67;1745134;80;21436;-72
2021/09/28 01:51:43;;;;;;;12.40;5.47;;;;;;;13.85;100.00;100683.69;1745219;80;21212;-72
2021/09/28 01:54:11;;;;;;;12.10;5.13;;;;;;;13.84;100.00;100680.77;1745365;80;21127;-67
2021/09/28 01:56:38;;;;;;;13.83;5.03;;;;;;;13.76;100.00;100679.11;1753404;80;21849;-68
2021/09/28 01:59:06;;;;;;;12.90;5.07;;;;;;;13.81;100.00;100687.70;1753295;80;21114;-71
2021/09/28 02:01:33;;;;;;;16.60;5.80;;;;;;;13.59;100.00;100685.65;1756688;80;21322;-67
2021/09/28 02:03:59;;;;;;;15.03;6.77;;;;;;;13.58;100.00;100691.89;1751954;80;21227;-71
2021/09/28 02:06:29;;;;;;;11.57;5.50;;;;;;;13.73;100.00;100686.04;1756628;80;21385;-68
2021/09/28 02:08:56;;;;;;;12.17;5.27;;;;;;;13.79;100.00;100691.83;1750762;81;21137;-72
2021/09/28 02:11:22;;;;;;;12.90;6.37;;;;;;;13.73;100.00;100693.90;1752522;80;21404;-67
2021/09/28 02:13:50;;;;;;;13.07;5.93;;;;;;;13.66;100.00;100687.81;1749935;81;21300;-68
2021/09/28 02:16:18;;;;;;;11.33;5.43;;;;;;;13.68;100.00;100691.06;1756102;80;22179;-68
2021/09/28 02:18:46;;;;;;;15.30;5.40;;;;;;;13.78;100.00;100692.00;1722279;80;21315;-73
2021/09/28 02:21:12;;;;;;;12.20;5.97;;;;;;;13.84;100.00;100695.98;1752230;80;21283;-67
2021/09/28 02:23:40;;;;;;;17.27;5.87;;;;;;;13.75;100.00;100697.63;1747872;81;21211;-68
2021/09/28 02:26:06;;;;;;;18.23;9.10;;;;;;;13.55;100.00;100689.15;1755132;80;21191;-68
2021/09/28 02:28:33;;;;;;;15.50;10.13;;;;;;;13.27;100.00;100693.09;1752558;80;21410;-68
2021/09/28 02:30:59;;;;;;;15.13;10.07;;;;;;;13.54;100.00;100690.66;1754400;80;22265;-71
2021/09/28 02:33:26;;;;;;;16.17;10.13;;;;;;;13.52;100.00;100694.77;1755477;80;21188;-68
2021/09/28 02:35:53;;;;;;;15.20;6.93;;;;;;;13.65;100.00;100701.92;1752531;80;21284;-73
2021/09/28 02:38:20;;;;;;;13.47;7.63;;;;;;;13.72;100.00;100705.39;1753731;80;21201;-67
2021/09/28 02:40:46;;;;;;;15.93;7.22;;;;;;;13.80;100.00;100706.55;1752320;80;21314;-68
2021/09/28 02:43:13;;;;;;;15.03;6.23;;;;;;;13.40;100.00;100702.84;1753259;80;21149;-68
2021/09/28 02:45:47;;;;;;;12.23;5.33;;;;;;;13.55;100.00;100708.80;1748689;80;21775;-67
2021/09/28 02:48:10;;;;;;;12.17;5.57;;;;;;;13.31;100.00;100707.42;1756278;80;21254;-68
2021/09/28 02:50:37;;;;;;;18.53;6.03;;;;;;;13.49;100.00;100707.45;1751402;80;22447;-67
2021/09/28 02:53:03;;;;;;;10.20;5.00;;;;;;;13.43;100.00;100710.83;1754294;80;21270;-67
2021/09/28 02:55:30;;;;;;;17.47;6.63;;;;;;;13.39;100.00;100710.40;1753797;80;21160;-67
2021/09/28 02:57:58;;;;;;;13.53;5.87;;;;;;;13.56;100.00;100711.74;1752142;80;21091;-72
2021/09/28 03:00:26;;;;;;;10.83;5.43;;;;;;;13.64;100.00;100708.16;1748005;80;21276;-70
2021/09/28 03:02:52;;;;;;;12.43;6.37;;;;;;;13.51;100.00;100711.98;1724527;81;21204;-69
2021/09/28 03:05:19;;;;;;;16.50;5.73;;;;;;;13.57;100.00;100715.97;1725597;81;21588;-70
2021/09/28 03:07:45;;;;;;;12.37;4.93;;;;;;;13.58;100.00;100710.23;1726415;81;21111;-66
2021/09/28 03:10:11;;;;;;;14.47;5.50;;;;;;;13.49;100.00;100715.31;1727402;81;21267;-67
2021/09/28 03:12:38;;;;;;;15.27;6.10;;;;;;;13.57;100.00;100719.91;1724428;81;21638;-67
2021/09/28 03:15:06;;;;;;;12.27;5.53;;;;;;;13.36;100.00;100725.98;1726498;81;21610;-67
2021/09/28 03:17:33;;;;;;;16.77;5.43;;;;;;;13.56;100.00;100729.24;1725549;81;21770;-71
2021/09/28 03:20:01;;;;;;;11.40;5.33;;;;;;;13.62;100.00;100729.80;1726491;81;21244;-68
2021/09/28 03:22:28;;;;;;;14.67;6.27;;;;;;;13.67;100.00;100721.36;1719058;81;21211;-66
2021/09/28 03:24:55;;;;;;;13.77;5.17;;;;;;;13.90;100.00;100728.45;1720125;81;21235;-66
2021/09/28 03:27:21;;;;;;;15.28;5.08;;;;;;;14.06;100.00;100733.91;1715225;81;21781;-67
2021/09/28 03:29:48;;;;;;;15.60;4.60;;;;;;;13.88;100.00;100728.66;1713034;81;20933;-67
2021/09/28 03:32:14;;;;;;;12.23;4.30;;;;;;;13.91;100.00;100734.02;1711912;81;21348;-68
2021/09/28 03:34:41;;;;;;;16.13;6.40;;;;;;;14.03;100.00;100738.22;1718337;81;21219;-66
2021/09/28 03:37:07;;;;;;;16.40;5.80;;;;;;;14.25;100.00;100738.94;1718972;81;21759;-69
2021/09/28 03:39:34;;;;;;;10.23;4.67;;;;;;;14.39;100.00;100738.47;1716137;81;21627;-68
2021/09/28 03:42:00;;;;;;;15.00;5.13;;;;;;;14.39;100.00;100737.16;1721552;81;21761;-64
2021/09/28 03:44:27;;;;;;;13.37;5.53;;;;;;;14.49;100.00;100745.48;1715913;81;21208;-79
2021/09/28 03:46:54;;;;;;;15.50;5.97;;;;;;;14.43;100.00;100741.81;1718297;81;21232;-64
2021/09/28 03:49:20;;;;;;;16.80;6.67;;;;;;;14.61;100.00;100750.48;1713587;81;21322;-64
2021/09/28 03:51:47;;;;;;;17.00;5.10;;;;;;;14.54;100.00;100745.21;1716064;81;21982;-65
2021/09/28 03:54:13;;;;;;;16.63;4.37;;;;;;;14.31;100.00;100745.50;1717647;81;21103;-64
2021/09/28 03:56:41;;;;;;;12.70;4.37;;;;;;;14.49;100.00;100750.25;1713132;81;21273;-64
2021/09/28 03:59:07;;;;;;;17.30;5.97;;;;;;;14.89;100.00;100747.75;1720097;81;21506;-65
2021/09/28 04:01:35;;;;;;;15.57;4.70;;;;;;;14.98;100.00;100751.79;1752128;79;21349;-73
2021/09/28 04:04:02;;;;;;;15.23;5.13;;;;;;;15.11;100.00;100754.92;1753082;81;21617;-69
2021/09/28 04:06:30;;;;;;;17.23;4.73;;;;;;;15.45;100.00;100759.70;1753574;79;21114;-68
2021/09/28 04:08:56;;;;;;;13.13;4.57;;;;;;;15.56;100.00;100756.45;1754891;81;21421;-68
2021/09/28 04:11:23;;;;;;;17.17;5.17;;;;;;;15.92;100.00;100761.30;1755550;81;21219;-66
2021/09/28 04:13:49;;;;;;;15.33;5.00;;;;;;;15.92;100.00;100759.19;1755625;81;21222;-78
2021/09/28 04:16:19;;;;;;;11.83;4.40;;;;;;;16.17;100.00;100766.68;1752521;81;21275;-75
2021/09/28 04:18:46;;;;;;;11.83;4.50;;;;;;;16.10;100.00;100769.86;1756306;81;21212;-66
2021/09/28 04:21:13;;;;;;;18.33;4.77;;;;;;;15.96;100.00;100768.27;1754486;79;21285;-68
2021/09/28 04:23:40;;;;;;;12.83;5.23;;;;;;;16.36;100.00;100768.94;1752656;81;21163;-69
2021/09/28 04:26:07;;;;;;;16.47;5.47;;;;;;;16.54;100.00;100768.27;1749683;80;20998;-70
2021/09/28 04:28:35;;;;;;;11.97;5.13;;;;;;;16.10;100.00;100771.66;1753745;81;21293;-68
2021/09/28 04:31:02;;;;;;;15.27;5.63;;;;;;;16.17;100.00;100773.26;1755211;79;22661;-68
2021/09/28 04:33:30;;;;;;;13.93;5.03;;;;;;;16.37;100.00;100782.94;1754026;81;21312;-66
2021/09/28 04:35:57;;;;;;;13.97;5.27;;;;;;;16.68;100.00;100780.36;1754835;81;21351;-70
2021/09/28 04:38:24;;;;;;;17.27;5.00;;;;;;;16.71;100.00;100783.09;1754637;81;21902;-74
2021/09/28 04:40:50;;;;;;;15.40;4.93;;;;;;;16.90;100.00;100785.34;1757060;81;21179;-70
2021/09/28 04:43:17;;;;;;;12.17;4.70;;;;;;;17.26;100.00;100781.54;1755664;79;21280;-70
2021/09/28 04:45:43;;;;;;;15.17;5.83;;;;;;;17.23;100.00;100788.55;1756908;81;21154;-71
2021/09/28 04:48:10;;;;;;;17.23;5.73;;;;;;;17.34;100.00;100785.73;1755379;81;21779;-69
2021/09/28 04:50:37;;;;;;;15.67;4.80;;;;;;;17.41;100.00;100785.18;1753913;81;21283;-72
2021/09/28 04:53:04;;;;;;;14.53;5.47;;;;;;;17.31;100.00;100787.99;1753542;81;21465;-69
2021/09/28 04:55:31;;;;;;;8.43;4.60;;;;;;;17.10;100.00;100787.34;1754046;81;21342;-67
2021/09/28 04:57:57;;;;;;;12.03;4.87;;;;;;;17.38;100.00;100788.23;1754190;81;21291;-67
2021/09/28 05:00:23;;;;;;;16.70;5.33;;;;;;;17.38;100.00;100788.23;1749812;81;21398;-75
2021/09/28 05:02:50;;;;;;;12.30;5.07;;;;;;;16.98;100.00;100792.99;1756937;80;22104;-68
2021/09/28 05:05:16;;;;;;;12.30;4.37;;;;;;;16.62;100.00;100799.61;1754345;80;21777;-70
2021/09/28 05:07:42;;;;;;;16.70;4.47;;;;;;;16.88;100.00;100788.69;1756506;81;21402;-69
2021/09/28 05:10:11;;;;;;;12.87;4.97;;;;;;;17.10;100.00;100796.55;1758478;79;21977;-70
2021/09/28 05:12:37;;;;;;;8.97;4.47;;;;;;;17.35;100.00;100797.08;1756080;79;21685;-77
2021/09/28 05:15:06;;;;;;;13.00;4.40;;;;;;;17.35;100.00;100797.08;1758516;79;21690;-68
2021/09/28 05:17:35;;;;;;;10.63;4.63;;;;;;;16.91;100.00;100804.88;1755735;79;21600;-68
2021/09/28 05:20:04;;;;;;;13.37;5.37;;;;;;;17.15;100.00;100803.81;1762030;79;21734;-68
2021/09/28 05:22:32;;;;;;;16.43;5.03;;;;;;;17.08;100.00;100807.80;1753071;79;21734;-74
2021/09/28 05:24:59;;;;;;;13.23;5.97;;;;;;;17.33;100.00;100804.41;1757497;79;21790;-68
2021/09/28 05:27:25;;;;;;;12.73;5.50;;;;;;;17.67;100.00;100809.20;1759885;79;22217;-68
2021/09/28 05:29:52;;;;;;;15.77;5.20;;;;;;;17.48;100.00;100807.02;1756829;81;21610;-68
2021/09/28 05:32:18;;;;;;;17.17;5.47;;;;;;;17.16;100.00;100806.73;1755498;79;21659;-72
2021/09/28 05:34:45;;;;;;;18.53;6.10;;;;;;;16.87;100.00;100813.41;1755756;79;21567;-75
2021/09/28 05:37:12;;;;;;;16.00;5.03;;;;;;;16.94;100.00;100808.92;1759668;79;21763;-69
2021/09/28 05:39:38;;;;;;;13.33;5.00;;;;;;;17.33;100.00;100801.26;1753364;81;21469;-69
2021/09/28 05:42:05;;;;;;;14.70;5.00;;;;;;;17.50;100.00;100805.48;1758738;79;21727;-68
2021/09/28 05:44:34;;;;;;;17.30;4.87;;;;;;;17.37;100.00;100805.59;1752496;81;21642;-72
2021/09/28 05:47:00;;;;;;;16.37;6.07;;;;;;;17.77;100.00;100803.48;1758981;79;21494;-68
2021/09/28 05:49:27;;;;;;;14.00;5.30;;;;;;;18.10;100.00;100799.69;1757337;79;21152;-68
2021/09/28 05:51:55;;;;;;;12.17;4.93;;;;;;;18.36;100.00;100801.23;1758057;81;20992;-68
2021/09/28 05:54:24;;;;;;;18.00;5.17;;;;;;;18.45;100.00;100806.52;1757794;79;20992;-68
2021/09/28 05:56:52;;;;;;;18.17;4.93;;;;;;;18.62;100.00;100812.80;1764624;79;21628;-76
2021/09/28 05:59:18;;;;;;;12.03;4.43;;;;;;;18.70;100.00;100811.68;1763809;79;21877;-67
2021/09/28 06:01:47;;;;;;;11.97;5.47;;;;;;;18.82;100.00;100808.59;1763275;79;20971;-68
2021/09/28 06:04:14;;;;;;;11.93;5.00;;;;;;;18.98;100.00;100809.83;1762361;80;20995;-68
2021/09/28 06:06:42;;;;;;;16.80;4.93;;;;;;;19.24;100.00;100811.25;1760180;79;20967;-73
2021/09/28 06:09:10;;;;;;;18.57;4.63;;;;;;;19.60;100.00;100806.32;1758031;79;21063;-68
2021/09/28 06:11:36;;;;;;;14.27;5.37;;;;;;;19.98;100.00;100810.89;1764969;79;21124;-70
2021/09/28 06:14:03;;;;;;;15.77;5.13;;;;;;;20.24;100.00;100815.69;1765090;79;21064;-68
2021/09/28 06:16:30;;;;;;;12.23;4.97;;;;;;;19.96;100.00;100808.98;1764228;79;20929;-70
2021/09/28 06:18:58;;;;;;;10.43;4.40;;;;;;;19.91;100.00;100813.66;1763133;79;20932;-70
2021/09/28 06:21:26;;;;;;;10.73;4.40;;;;;;;20.47;100.00;100812.19;1768842;79;21312;-68
2021/09/28 06:23:53;;;;;;;12.27;5.10;;;;;;;21.08;100.00;100815.99;1763438;79;21929;-68
2021/09/28 06:26:21;;;;;;;14.33;5.90;;;;;;;22.18;93.96;100809.73;1763281;79;21038;-68
2021/09/28 06:28:47;;;;;;;12.87;4.93;;;;;;;22.99;70.82;100813.03;1763141;79;21497;-72
2021/09/28 06:31:14;;;;;;;13.10;5.07;;;;;;;23.09;64.57;100812.34;1765553;79;21122;-71
2021/09/28 06:33:42;;;;;;;12.83;5.07;;;;;;;23.12;63.13;100812.63;1769135;79;20964;-68
2021/09/28 06:36:09;;;;;;;9.17;5.33;;;;;;;23.46;59.73;100817.70;1765576;79;22236;-69
2021/09/28 06:38:36;;;;;;;12.03;4.47;;;;;;;23.81;56.10;100824.34;1763281;79;21068;-69
2021/09/28 06:41:03;;;;;;;12.00;4.83;;;;;;;23.99;54.85;100817.27;1762935;79;20988;-69
2021/09/28 06:43:30;;;;;;;12.57;4.90;;;;;;;24.12;53.92;100822.11;1765958;79;21088;-68
2021/09/28 06:45:59;;;;;;;15.30;5.33;;;;;;;24.62;52.52;100819.92;1764293;79;21047;-68
2021/09/28 06:48:26;;;;;;;13.63;4.57;;;;;;;24.40;52.42;100828.94;1765476;79;21043;-70
2021/09/28 06:50:53;;;;;;;14.00;5.27;;;;;;;24.14;52.59;100830.66;1768440;79;21194;-81
2021/09/28 06:53:19;;;;;;;13.67;5.53;;;;;;;24.34;51.61;100831.80;1766595;79;21038;-67
2021/09/28 06:55:46;;;;;;;14.77;4.50;;;;;;;24.56;49.77;100826.33;1762555;79;20920;-69
2021/09/28 06:58:12;;;;;;;10.57;4.67;;;;;;;25.13;48.48;100820.05;1767925;79;21027;-69
2021/09/28 07:00:39;;;;;;;10.37;4.63;;;;;;;25.58;45.71;100826.45;1762571;79;21144;-69
2021/09/28 07:03:07;;;;;;;16.33;5.10;;;;;;;25.71;43.38;100826.67;1755152;79;20935;-68
2021/09/28 07:05:34;;;;;;;10.93;4.53;;;;;;;25.22;43.46;100832.58;1745166;80;20993;-68
2021/09/28 07:08:01;;;;;;;9.00;4.23;;;;;;;25.06;44.38;100834.15;1751093;81;21041;-68
2021/09/28 07:10:31;;;;;;;15.13;4.97;;;;;;;25.26;44.19;100838.19;1748672;81;21559;-75
2021/09/28 07:12:59;;;;;;;12.57;5.00;;;;;;;25.76;42.39;100845.91;1744267;80;22406;-68
2021/09/28 07:15:26;;;;;;;16.77;5.33;;;;;;;25.58;41.35;100847.80;1752622;80;21006;-71
2021/09/28 07:17:54;;;;;;;12.87;4.77;;;;;;;25.42;41.20;100846.48;1751043;81;21568;-68
2021/09/28 07:20:21;;;;;;;12.60;4.43;;;;;;;25.26;40.88;100848.06;1750402;81;20956;-74
2021/09/28 07:22:49;;;;;;;13.60;5.80;;;;;;;24.91;41.01;100845.06;1748736;81;20942;-66
2021/09/28 07:25:16;;;;;;;16.07;5.67;;;;;;;24.38;41.96;100851.53;1748820;80;22193;-66
2021/09/28 07:27:42;;;;;;;12.93;4.90;;;;;;;24.21;43.32;100845.88;1743036;81;21511;-67
2021/09/28 07:30:11;;;;;;;13.23;5.17;;;;;;;24.44;43.71;100846.00;1765131;79;21056;-67
2021/09/28 07:32:39;;;;;;;13.77;5.10;;;;;;;24.69;43.17;100843.94;1752650;81;21480;-70
2021/09/28 07:35:08;;;;;;;13.50;4.07;;;;;;;24.73;43.24;100845.55;1749056;81;21277;-68
2021/09/28 07:37:34;;;;;;;12.87;4.77;;;;;;;25.34;41.95;100844.86;1740868;81;21228;-68
2021/09/28 07:40:04;;;;;;;10.70;5.20;;;;;;;25.58;40.68;100846.47;1742774;80;21030;-67
2021/09/28 07:42:31;;;;;;;14.43;5.27;;;;;;;26.04;40.29;100843.73;1750698;81;21052;-72
2021/09/28 07:45:02;;;;;;;11.73;4.77;;;;;;;26.48;39.56;100843.87;1750380;81;21093;-68
2021/09/28 07:47:30;;;;;;;13.77;4.37;;;;;;;27.14;39.54;100842.68;1735780;81;21157;-67
2021/09/28 07:49:57;;;;;;;17.57;5.43;;;;;;;27.69;37.06;100835.22;1738018;81;21650;-70
2021/09/28 07:52:24;;;;;;;19.23;4.90;;;;;;;27.70;35.12;100840.85;1742332;81;21065;-69
2021/09/28 07:54:51;;;;;;;14.63;5.77;;;;;;;27.48;33.96;100838.65;1738504;81;21460;-68
2021/09/28 07:57:18;;;;;;;14.97;4.93;;;;;;;26.71;34.54;100847.76;1746881;81;21081;-68
2021/09/28 07:59:44;;;;;;;15.03;5.37;;;;;;;25.85;35.66;100846.19;1745204;81;21081;-67
2021/09/28 08:02:12;;;;;;;15.00;4.60;;;;;;;25.81;36.15;100843.80;1742007;80;20967;-65
2021/09/28 08:04:41;;;;;;;12.90;4.70;;;;;;;25.55;36.60;100845.66;1728674;80;21030;-71
2021/09/28 08:07:12;;;;;;;15.27;4.63;;;;;;;25.44;36.59;100834.98;1703958;81;21105;-67
2021/09/28 08:09:38;;;;;;;19.00;4.33;;;;;;;25.39;36.77;100844.88;1720710;81;21461;-68
2021/09/28 08:12:06;;;;;;;19.20;5.37;;;;;;;25.72;37.22;100843.48;1723480;81;20955;-66
2021/09/28 08:14:33;;;;;;;12.90;4.27;;;;;;;26.31;37.91;100837.48;1702781;81;21141;-71
2021/09/28 08:16:59;;;;;;;14.07;5.40;;;;;;;27.23;35.58;100837.52;1726509;82;21566;-65
2021/09/28 08:19:28;;;;;;;11.27;4.57;;;;;;;27.52;33.71;100830.85;1701926;81;21552;-66
2021/09/28 08:21:57;;;;;;;14.67;5.20;;;;;;;27.19;33.18;100841.84;1726333;82;21089;-70
2021/09/28 08:24:26;;;;;;;18.33;5.00;;;;;;;26.65;34.10;100841.63;1721076;82;20850;-67
2021/09/28 08:29:38;;;;;;;14.60;5.03;;;;;;;25.61;34.62;100845.40;1725833;82;20873;-68
2021/09/28 08:32:07;;;;;;;11.00;4.63;;;;;;;24.87;35.60;100842.66;1704095;83;21039;-66
2021/09/28 08:34:34;;;;;;;14.10;4.70;;;;;;;24.53;36.84;100848.96;1702892;81;21102;-67
2021/09/28 08:37:04;;;;;;;15.37;4.93;;;;;;;24.35;38.10;100840.86;1726404;82;21073;-68
2021/09/28 08:39:31;;;;;;;12.13;4.27;;;;;;;24.54;37.59;100843.09;1704439;81;21144;-72
2021/09/28 08:41:59;;;;;;;9.80;4.53;;;;;;;24.87;37.38;100839.98;1722464;80;21110;-68
2021/09/28 08:44:26;;;;;;;19.27;4.50;;;;;;;25.53;37.28;100837.11;1699968;81;21404;-71
2021/09/28 08:46:52;;;;;;;13.90;4.07;;;;;;;26.11;34.87;100840.24;1720033;82;21445;-67
2021/09/28 08:49:20;;;;;;;17.13;5.80;;;;;;;26.38;33.86;100832.64;1705009;81;21271;-69
2021/09/28 08:51:47;;;;;;;10.80;3.70;;;;;;;26.40;33.55;100835.86;1720617;82;21110;-73
2021/09/28 08:54:16;;;;;;;7.53;3.47;;;;;;;26.40;34.26;100839.87;1704912;83;21050;-65
2021/09/28 08:56:43;;;;;;;12.47;4.47;;;;;;;26.75;34.44;100840.78;1721441;81;21038;-68
2021/09/28 08:59:13;;;;;;;15.57;5.03;;;;;;;26.51;35.16;100839.28;1700322;83;21041;-66
2021/09/28 09:02:02;;;;;;;13.70;4.60;;;;;;;26.65;35.22;100840.83;1717927;82;20942;-74
2021/09/28 09:04:27;;;;;;;14.60;5.40;;;;;;;27.07;34.37;100838.95;1720079;81;21163;-72
2021/09/28 09:06:55;;;;;;;13.17;4.47;;;;;;;27.02;34.04;100838.20;1722059;81;20924;-66
2021/09/28 09:09:26;;;;;;;14.63;4.90;;;;;;;26.69;34.28;100841.88;1716803;81;21042;-66
2021/09/28 09:11:51;;;;;;;18.07;4.60;;;;;;;26.28;34.58;100840.70;1692200;82;21166;-64
2021/09/28 09:14:21;;;;;;;13.90;4.67;;;;;;;25.91;35.29;100849.92;1693557;83;21093;-64
2021/09/28 09:16:50;;;;;;;11.47;3.70;;;;;;;25.64;35.31;100849.38;1704739;81;22090;-64
2021/09/28 09:19:22;;;;;;;10.73;4.73;;;;;;;25.32;35.73;100849.14;1724906;81;21065;-67
2021/09/28 09:21:51;;;;;;;17.20;5.10;;;;;;;24.72;36.77;100853.28;1723680;82;21062;-64
2021/09/28 09:24:51;;;;;;;12.83;4.67;;;;;;;23.97;38.56;100854.78;1704635;83;21596;-65
2021/09/28 09:27:33;;;;;;;16.27;4.90;;;;;;;23.71;39.49;100858.34;1720907;82;21578;-67
2021/09/28 09:30:17;;;;;;;9.93;4.53;;;;;;;23.38;40.47;100858.88;1704051;83;21171;-65
2021/09/28 09:32:55;;;;;;;12.93;4.27;;;;;;;23.06;40.70;100858.84;1720120;81;21069;-68
2021/09/28 09:35:29;;;;;;;16.13;5.27;;;;;;;22.81;42.10;100870.00;1706029;81;21518;-66
2021/09/28 09:38:10;;;;;;;11.33;3.70;;;;;;;22.78;41.87;100865.97;1723829;81;20981;-72
2021/09/28 09:40:42;;;;;;;16.67;4.80;;;;;;;23.03;41.38;100870.80;1702387;81;21121;-66
2021/09/28 09:43:10;;;;;;;15.20;4.73;;;;;;;22.84;41.54;100866.81;1720577;80;21122;-67
2021/09/28 09:45:37;;;;;;;13.13;4.33;;;;;;;22.72;41.35;100872.27;1702328;81;21023;-68
2021/09/28 09:48:24;;;;;;;12.90;3.97;;;;;;;22.44;42.03;100877.27;1722486;80;21044;-73
2021/09/28 09:50:59;;;;;;;14.53;4.07;;;;;;;22.43;42.43;100880.17;1702726;81;21091;-65
2021/09/28 09:53:25;;;;;;;14.47;4.00;;;;;;;22.27;42.68;100881.80;1719472;81;21002;-72
2021/09/28 09:55:53;;;;;;;10.37;3.53;;;;;;;22.34;43.23;100879.78;1704987;81;21036;-67
2021/09/28 09:58:20;;;;;;;11.63;3.87;;;;;;;22.58;42.22;100867.08;1721432;81;21557;-65
2021/09/28 10:00:49;;;;;;;10.40;3.57;;;;;;;23.28;41.29;100862.24;1690828;82;21015;-68
2021/09/28 10:03:16;;;;;;;13.67;4.60;;;;;;;23.64;40.32;100867.87;1705775;81;21119;-64
2021/09/28 10:05:42;;;;;;;15.13;4.17;;;;;;;23.59;40.01;100872.34;1721753;81;21004;-75
2021/09/28 10:08:13;;;;;;;13.77;4.47;;;;;;;23.78;39.86;100873.57;1701045;81;21688;-65
2021/09/28 10:10:41;;;;;;;11.53;4.17;;;;;;;23.57;39.73;100871.80;1726745;80;20932;-66
2021/09/28 10:13:08;;;;;;;13.70;4.17;;;;;;;23.43;39.71;100876.20;1712104;81;21118;-66
2021/09/28 10:15:36;;;;;;;12.47;4.53;;;;;;;23.03;39.27;100876.12;1769662;79;20978;-68
2021/09/28 10:18:05;;;;;;;9.87;4.50;;;;;;;22.89;39.82;100883.38;1728279;82;21050;-68
2021/09/28 10:20:33;;;;;;;13.83;4.10;;;;;;;22.34;40.60;100883.23;1709580;83;21180;-65
2021/09/28 10:23:11;;;;;;;29.40;14.00;;;;;;;22.06;41.39;100885.48;1731167;82;20998;-65
2021/09/28 10:25:41;;;;;;;23.77;15.43;;;;;;;22.00;41.75;100887.78;1728745;82;21012;-72
2021/09/28 10:28:14;;;;;;;18.87;8.37;;;;;;;21.64;43.04;100893.60;1730836;82;21078;-66
2021/09/28 10:30:45;;;;;;;13.27;5.97;;;;;;;21.45;43.77;100895.67;1727374;82;20975;-65
2021/09/28 10:33:23;;;;;;;47.27;28.95;;;;;;;21.52;43.78;100897.66;1718837;81;21141;-67
2021/09/28 10:36:13;;;;;;;26.87;13.63;;;;;;;21.66;43.80;100896.80;1694780;81;22394;-67
2021/09/28 10:38:53;;;;;;;75.28;38.50;;;;;;;21.79;44.01;100893.31;1726976;82;21032;-68
2021/09/28 10:41:42;;;;;;;60.67;32.13;;;;;;;21.91;43.63;100897.73;1725297;80;20987;-75
2021/09/28 10:44:37;;;;;;;51.50;24.73;;;;;;;22.13;43.01;100897.27;1700555;81;21060;-67
2021/09/28 10:46:59;;;;;;;18.23;6.23;;;;;;;22.16;42.33;100893.33;1724635;81;21049;-66
2021/09/28 10:49:35;;;;;;;13.30;4.63;;;;;;;22.25;43.19;100899.85;1703349;82;20942;-67
2021/09/28 10:52:24;;;;;;;19.90;9.13;;;;;;;22.44;42.32;100890.55;1708167;81;21080;-68
2021/09/28 10:55:12;;;;;;;12.77;7.63;;;;;;;22.33;42.68;100893.59;1725102;82;21568;-69
2021/09/28 10:58:11;;;;;;;13.77;5.73;;;;;;;22.32;42.58;100890.66;1730746;81;21053;-68
2021/09/28 11:00:48;;;;;;;13.70;4.10;;;;;;;22.47;41.46;100892.72;1708540;83;21062;-66
2021/09/28 11:03:16;;;;;;;15.40;4.27;;;;;;;22.51;40.80;100891.17;1726815;82;21002;-69
2021/09/28 11:05:55;;;;;;;16.73;5.10;;;;;;;22.27;40.88;100893.75;1709296;82;20983;-66
2021/09/28 11:08:22;;;;;;;14.37;4.27;;;;;;;22.46;41.44;100904.90;1728656;80;20963;-66
2021/09/28 11:11:01;;;;;;;15.53;4.57;;;;;;;22.13;44.60;100908.42;1742643;80;21124;-66
2021/09/28 11:13:35;;;;;;;12.33;5.10;;;;;;;21.81;46.78;100915.62;1743251;81;21467;-63
2021/09/28 11:16:08;;;;;;;12.40;4.73;;;;;;;21.43;49.00;100919.77;1740449;81;21527;-67
2021/09/28 11:18:38;;;;;;;15.20;4.03;;;;;;;20.69;51.68;100922.84;1749192;80;21105;-65
2021/09/28 11:21:14;;;;;;;10.08;5.00;;;;;;;20.37;53.91;100923.18;1765204;80;20869;-70